sensor_id;sensor_type;location;lat;lon;timestamp;P1;durP1;ratioP1;P2;durP2;ratioP2
15281;SDS011;7742;44.320;19.820;2023-04-24T00:01:21;19.83;;;18.77;;
15281;SDS011;7742;44.320;19.820;2023-04-24T00:03:48;20.75;;;19.35;;
15281;SDS011;7742;44.320;19.820;2023-04-24T00:06:15;20.00;;;18.80;;
15281;SDS011;7742;44.320;19.820;2023-04-24T00:08:44;20.57;;;19.37;;
15281;SDS011;7742;44.320;19.820;2023-04-24T00:11:11;20.20;;;19.00;;
15281;SDS011;7742;44.320;19.820;2023-04-24T00:13:38;19.40;;;18.30;;
15281;SDS011;7742;44.320;19.820;2023-04-24T00:16:07;19.97;;;18.63;;
15281;SDS011;7742;44.320;19.820;2023-04-24T00:18:34;20.20;;;19.10;;
15281;SDS011;7742;44.320;19.820;2023-04-24T00:21:01;18.97;;;17.97;;
15281;SDS011;7742;44.320;19.820;2023-04-24T00:23:28;19.33;;;18.23;;
15281;SDS011;7742;44.320;19.820;2023-04-24T00:25:56;19.87;;;18.50;;
15281;SDS011;7742;44.320;19.820;2023-04-24T00:28:23;18.90;;;17.90;;
15281;SDS011;7742;44.320;19.820;2023-04-24T00:30:50;19.73;;;18.53;;
15281;SDS011;7742;44.320;19.820;2023-04-24T00:33:17;19.37;;;18.20;;
15281;SDS011;7742;44.320;19.820;2023-04-24T00:35:44;17.60;;;16.70;;
15281;SDS011;7742;44.320;19.820;2023-04-24T00:38:11;18.00;;;17.00;;
15281;SDS011;7742;44.320;19.820;2023-04-24T00:40:38;18.60;;;17.40;;
15281;SDS011;7742;44.320;19.820;2023-04-24T00:43:06;18.70;;;17.60;;
15281;SDS011;7742;44.320;19.820;2023-04-24T00:45:33;17.83;;;16.83;;
15281;SDS011;7742;44.320;19.820;2023-04-24T00:48:01;17.40;;;16.50;;
15281;SDS011;7742;44.320;19.820;2023-04-24T00:50:28;17.67;;;16.77;;
15281;SDS011;7742;44.320;19.820;2023-04-24T00:52:55;17.83;;;16.83;;
15281;SDS011;7742;44.320;19.820;2023-04-24T00:55:22;17.40;;;16.40;;
15281;SDS011;7742;44.320;19.820;2023-04-24T00:57:49;18.43;;;17.43;;
15281;SDS011;7742;44.320;19.820;2023-04-24T01:00:18;19.17;;;18.13;;
15281;SDS011;7742;44.320;19.820;2023-04-24T01:02:45;19.00;;;17.93;;
15281;SDS011;7742;44.320;19.820;2023-04-24T01:05:12;19.17;;;18.07;;
15281;SDS011;7742;44.320;19.820;2023-04-24T01:07:40;19.67;;;18.57;;
15281;SDS011;7742;44.320;19.820;2023-04-24T01:10:09;17.10;;;16.20;;
15281;SDS011;7742;44.320;19.820;2023-04-24T01:12:36;19.33;;;18.27;;
15281;SDS011;7742;44.320;19.820;2023-04-24T01:15:04;19.50;;;18.43;;
15281;SDS011;7742;44.320;19.820;2023-04-24T01:17:33;19.43;;;18.30;;
15281;SDS011;7742;44.320;19.820;2023-04-24T01:20:00;19.50;;;18.50;;
15281;SDS011;7742;44.320;19.820;2023-04-24T01:22:32;19.17;;;18.17;;
15281;SDS011;7742;44.320;19.820;2023-04-24T01:24:59;19.93;;;18.63;;
15281;SDS011;7742;44.320;19.820;2023-04-24T01:27:26;19.47;;;18.37;;
15281;SDS011;7742;44.320;19.820;2023-04-24T01:29:53;19.50;;;18.50;;
15281;SDS011;7742;44.320;19.820;2023-04-24T01:32:20;19.10;;;18.10;;
15281;SDS011;7742;44.320;19.820;2023-04-24T01:34:47;18.90;;;17.80;;
15281;SDS011;7742;44.320;19.820;2023-04-24T01:37:14;18.50;;;17.50;;
15281;SDS011;7742;44.320;19.820;2023-04-24T01:39:43;18.73;;;17.63;;
15281;SDS011;7742;44.320;19.820;2023-04-24T01:42:10;18.37;;;17.37;;
15281;SDS011;7742;44.320;19.820;2023-04-24T01:44:38;19.30;;;18.20;;
15281;SDS011;7742;44.320;19.820;2023-04-24T01:47:05;19.73;;;18.60;;
15281;SDS011;7742;44.320;19.820;2023-04-24T01:49:32;18.77;;;17.67;;
15281;SDS011;7742;44.320;19.820;2023-04-24T01:51:59;19.67;;;18.67;;
15281;SDS011;7742;44.320;19.820;2023-04-24T01:54:26;19.50;;;18.50;;
15281;SDS011;7742;44.320;19.820;2023-04-24T01:56:54;19.70;;;18.63;;
15281;SDS011;7742;44.320;19.820;2023-04-24T01:59:21;20.27;;;19.07;;
15281;SDS011;7742;44.320;19.820;2023-04-24T02:01:50;18.73;;;17.60;;
15281;SDS011;7742;44.320;19.820;2023-04-24T02:04:16;19.17;;;18.07;;
15281;SDS011;7742;44.320;19.820;2023-04-24T02:06:43;19.63;;;18.60;;
15281;SDS011;7742;44.320;19.820;2023-04-24T02:09:10;20.20;;;19.10;;
15281;SDS011;7742;44.320;19.820;2023-04-24T02:11:37;18.77;;;17.77;;
15281;SDS011;7742;44.320;19.820;2023-04-24T02:14:05;18.43;;;17.47;;
15281;SDS011;7742;44.320;19.820;2023-04-24T02:16:32;19.30;;;18.10;;
15281;SDS011;7742;44.320;19.820;2023-04-24T02:19:01;18.67;;;17.60;;
15281;SDS011;7742;44.320;19.820;2023-04-24T02:21:28;18.47;;;17.57;;
15281;SDS011;7742;44.320;19.820;2023-04-24T02:23:56;18.57;;;17.57;;
15281;SDS011;7742;44.320;19.820;2023-04-24T02:26:22;18.90;;;17.80;;
15281;SDS011;7742;44.320;19.820;2023-04-24T02:28:50;18.70;;;17.63;;
15281;SDS011;7742;44.320;19.820;2023-04-24T02:31:18;18.90;;;17.80;;
15281;SDS011;7742;44.320;19.820;2023-04-24T02:33:45;19.40;;;18.40;;
15281;SDS011;7742;44.320;19.820;2023-04-24T02:36:12;18.47;;;17.53;;
15281;SDS011;7742;44.320;19.820;2023-04-24T02:38:39;18.73;;;17.63;;
15281;SDS011;7742;44.320;19.820;2023-04-24T02:41:06;18.70;;;17.70;;
15281;SDS011;7742;44.320;19.820;2023-04-24T02:43:33;19.00;;;18.00;;
15281;SDS011;7742;44.320;19.820;2023-04-24T02:46:00;18.80;;;17.80;;
15281;SDS011;7742;44.320;19.820;2023-04-24T02:48:29;18.33;;;17.33;;
15281;SDS011;7742;44.320;19.820;2023-04-24T02:50:56;19.37;;;18.33;;
15281;SDS011;7742;44.320;19.820;2023-04-24T02:53:23;19.33;;;18.20;;
15281;SDS011;7742;44.320;19.820;2023-04-24T02:55:50;19.20;;;18.20;;
15281;SDS011;7742;44.320;19.820;2023-04-24T02:58:17;18.83;;;17.83;;
15281;SDS011;7742;44.320;19.820;2023-04-24T03:00:45;18.63;;;17.53;;
15281;SDS011;7742;44.320;19.820;2023-04-24T03:03:12;18.30;;;17.30;;
15281;SDS011;7742;44.320;19.820;2023-04-24T03:05:40;18.50;;;17.43;;
15281;SDS011;7742;44.320;19.820;2023-04-24T03:08:07;17.90;;;16.80;;
15281;SDS011;7742;44.320;19.820;2023-04-24T03:10:34;17.83;;;16.93;;
15281;SDS011;7742;44.320;19.820;2023-04-24T03:13:01;19.10;;;18.00;;
15281;SDS011;7742;44.320;19.820;2023-04-24T03:15:28;17.67;;;16.67;;
15281;SDS011;7742;44.320;19.820;2023-04-24T03:17:55;18.63;;;17.73;;
15281;SDS011;7742;44.320;19.820;2023-04-24T03:20:22;18.10;;;17.10;;
15281;SDS011;7742;44.320;19.820;2023-04-24T03:22:50;18.07;;;17.07;;
15281;SDS011;7742;44.320;19.820;2023-04-24T03:25:17;17.83;;;16.77;;
15281;SDS011;7742;44.320;19.820;2023-04-24T03:27:44;18.57;;;17.63;;
15281;SDS011;7742;44.320;19.820;2023-04-24T03:30:11;25.27;;;23.77;;
15281;SDS011;7742;44.320;19.820;2023-04-24T03:32:38;37.67;;;34.97;;
15281;SDS011;7742;44.320;19.820;2023-04-24T03:35:06;23.57;;;22.03;;
15281;SDS011;7742;44.320;19.820;2023-04-24T03:37:33;19.20;;;18.10;;
15281;SDS011;7742;44.320;19.820;2023-04-24T03:40:02;18.43;;;17.47;;
15281;SDS011;7742;44.320;19.820;2023-04-24T03:42:29;17.97;;;16.87;;
15281;SDS011;7742;44.320;19.820;2023-04-24T03:44:56;17.63;;;16.47;;
15281;SDS011;7742;44.320;19.820;2023-04-24T03:47:23;18.37;;;17.27;;
15281;SDS011;7742;44.320;19.820;2023-04-24T03:49:50;18.63;;;17.43;;
15281;SDS011;7742;44.320;19.820;2023-04-24T03:52:17;18.97;;;17.80;;
15281;SDS011;7742;44.320;19.820;2023-04-24T03:54:44;25.33;;;23.33;;
15281;SDS011;7742;44.320;19.820;2023-04-24T03:57:12;25.33;;;23.33;;
15281;SDS011;7742;44.320;19.820;2023-04-24T03:59:39;18.50;;;17.10;;
15281;SDS011;7742;44.320;19.820;2023-04-24T04:02:06;18.67;;;17.37;;
15281;SDS011;7742;44.320;19.820;2023-04-24T04:04:33;16.87;;;15.87;;
15281;SDS011;7742;44.320;19.820;2023-04-24T04:07:00;16.40;;;15.50;;
15281;SDS011;7742;44.320;19.820;2023-04-24T04:09:28;19.00;;;17.90;;
15281;SDS011;7742;44.320;19.820;2023-04-24T04:11:55;17.60;;;16.60;;
15281;SDS011;7742;44.320;19.820;2023-04-24T04:14:23;17.00;;;16.10;;
15281;SDS011;7742;44.320;19.820;2023-04-24T04:16:50;18.00;;;16.90;;
15281;SDS011;7742;44.320;19.820;2023-04-24T04:19:17;19.30;;;18.20;;
15281;SDS011;7742;44.320;19.820;2023-04-24T04:21:44;18.87;;;17.70;;
15281;SDS011;7742;44.320;19.820;2023-04-24T04:24:15;19.03;;;17.97;;
15281;SDS011;7742;44.320;19.820;2023-04-24T04:26:42;16.83;;;15.93;;
15281;SDS011;7742;44.320;19.820;2023-04-24T04:29:11;16.63;;;15.70;;
15281;SDS011;7742;44.320;19.820;2023-04-24T04:31:40;16.33;;;15.33;;
15281;SDS011;7742;44.320;19.820;2023-04-24T04:34:07;16.93;;;16.03;;
15281;SDS011;7742;44.320;19.820;2023-04-24T04:36:34;16.93;;;16.03;;
15281;SDS011;7742;44.320;19.820;2023-04-24T04:39:02;19.07;;;18.00;;
15281;SDS011;7742;44.320;19.820;2023-04-24T04:41:30;17.20;;;16.20;;
15281;SDS011;7742;44.320;19.820;2023-04-24T04:43:57;16.10;;;15.30;;
15281;SDS011;7742;44.320;19.820;2023-04-24T04:46:24;17.27;;;16.27;;
15281;SDS011;7742;44.320;19.820;2023-04-24T04:48:54;16.40;;;15.60;;
15281;SDS011;7742;44.320;19.820;2023-04-24T04:51:23;16.33;;;15.53;;
15281;SDS011;7742;44.320;19.820;2023-04-24T04:53:50;17.20;;;16.30;;
15281;SDS011;7742;44.320;19.820;2023-04-24T04:56:17;17.93;;;16.90;;
15281;SDS011;7742;44.320;19.820;2023-04-24T04:58:44;18.90;;;17.90;;
15281;SDS011;7742;44.320;19.820;2023-04-24T05:01:11;18.53;;;17.53;;
15281;SDS011;7742;44.320;19.820;2023-04-24T05:03:38;19.20;;;18.10;;
15281;SDS011;7742;44.320;19.820;2023-04-24T05:06:07;18.63;;;17.43;;
15281;SDS011;7742;44.320;19.820;2023-04-24T05:08:34;21.67;;;20.47;;
15281;SDS011;7742;44.320;19.820;2023-04-24T05:11:00;19.57;;;18.20;;
15281;SDS011;7742;44.320;19.820;2023-04-24T05:13:27;18.37;;;17.40;;
15281;SDS011;7742;44.320;19.820;2023-04-24T05:15:55;21.67;;;20.07;;
15281;SDS011;7742;44.320;19.820;2023-04-24T05:18:22;18.60;;;17.50;;
15281;SDS011;7742;44.320;19.820;2023-04-24T05:20:48;17.67;;;16.47;;
15281;SDS011;7742;44.320;19.820;2023-04-24T05:23:17;19.13;;;18.00;;
15281;SDS011;7742;44.320;19.820;2023-04-24T05:25:44;19.03;;;17.90;;
15281;SDS011;7742;44.320;19.820;2023-04-24T05:28:11;18.23;;;17.23;;
15281;SDS011;7742;44.320;19.820;2023-04-24T05:30:38;18.40;;;17.40;;
15281;SDS011;7742;44.320;19.820;2023-04-24T05:33:05;18.40;;;17.33;;
15281;SDS011;7742;44.320;19.820;2023-04-24T05:35:32;17.60;;;16.70;;
15281;SDS011;7742;44.320;19.820;2023-04-24T05:37:59;17.37;;;16.37;;
15281;SDS011;7742;44.320;19.820;2023-04-24T05:40:28;17.83;;;16.73;;
15281;SDS011;7742;44.320;19.820;2023-04-24T05:42:55;19.97;;;18.80;;
15281;SDS011;7742;44.320;19.820;2023-04-24T05:45:21;20.63;;;19.43;;
15281;SDS011;7742;44.320;19.820;2023-04-24T05:47:48;20.03;;;18.83;;
15281;SDS011;7742;44.320;19.820;2023-04-24T05:50:17;17.90;;;16.90;;
15281;SDS011;7742;44.320;19.820;2023-04-24T05:52:44;19.70;;;18.70;;
15281;SDS011;7742;44.320;19.820;2023-04-24T05:55:11;19.40;;;18.30;;
15281;SDS011;7742;44.320;19.820;2023-04-24T05:57:40;17.50;;;16.50;;
15281;SDS011;7742;44.320;19.820;2023-04-24T06:00:07;18.70;;;17.73;;
15281;SDS011;7742;44.320;19.820;2023-04-24T06:02:34;19.17;;;18.07;;
15281;SDS011;7742;44.320;19.820;2023-04-24T06:05:01;20.17;;;19.07;;
15281;SDS011;7742;44.320;19.820;2023-04-24T06:07:29;18.07;;;17.07;;
15281;SDS011;7742;44.320;19.820;2023-04-24T06:09:56;21.30;;;20.20;;
15281;SDS011;7742;44.320;19.820;2023-04-24T06:12:23;20.13;;;19.07;;
15281;SDS011;7742;44.320;19.820;2023-04-24T06:14:52;17.70;;;16.80;;
15281;SDS011;7742;44.320;19.820;2023-04-24T06:17:20;18.47;;;17.47;;
15281;SDS011;7742;44.320;19.820;2023-04-24T06:19:47;18.53;;;17.63;;
15281;SDS011;7742;44.320;19.820;2023-04-24T06:22:14;19.07;;;18.07;;
15281;SDS011;7742;44.320;19.820;2023-04-24T06:24:41;16.60;;;15.60;;
15281;SDS011;7742;44.320;19.820;2023-04-24T06:27:08;19.90;;;19.00;;
15281;SDS011;7742;44.320;19.820;2023-04-24T06:29:36;17.50;;;16.60;;
15281;SDS011;7742;44.320;19.820;2023-04-24T06:32:04;18.87;;;17.87;;
15281;SDS011;7742;44.320;19.820;2023-04-24T06:34:31;18.43;;;17.40;;
15281;SDS011;7742;44.320;19.820;2023-04-24T06:36:59;19.70;;;18.70;;
15281;SDS011;7742;44.320;19.820;2023-04-24T06:39:26;20.33;;;19.20;;
15281;SDS011;7742;44.320;19.820;2023-04-24T06:41:53;19.10;;;17.90;;
15281;SDS011;7742;44.320;19.820;2023-04-24T06:44:20;16.17;;;15.20;;
15281;SDS011;7742;44.320;19.820;2023-04-24T06:46:47;16.20;;;15.20;;
15281;SDS011;7742;44.320;19.820;2023-04-24T06:49:15;19.83;;;18.83;;
15281;SDS011;7742;44.320;19.820;2023-04-24T06:51:42;20.80;;;19.70;;
15281;SDS011;7742;44.320;19.820;2023-04-24T06:54:10;17.63;;;16.70;;
15281;SDS011;7742;44.320;19.820;2023-04-24T06:56:37;18.63;;;17.53;;
15281;SDS011;7742;44.320;19.820;2023-04-24T06:59:04;17.50;;;16.50;;
15281;SDS011;7742;44.320;19.820;2023-04-24T07:01:31;17.03;;;16.13;;
15281;SDS011;7742;44.320;19.820;2023-04-24T07:03:58;21.00;;;19.70;;
15281;SDS011;7742;44.320;19.820;2023-04-24T07:06:26;19.37;;;18.17;;
15281;SDS011;7742;44.320;19.820;2023-04-24T07:08:54;17.60;;;16.50;;
15281;SDS011;7742;44.320;19.820;2023-04-24T07:11:30;20.30;;;19.20;;
15281;SDS011;7742;44.320;19.820;2023-04-24T07:13:57;18.37;;;17.27;;
15281;SDS011;7742;44.320;19.820;2023-04-24T07:16:24;18.10;;;17.20;;
15281;SDS011;7742;44.320;19.820;2023-04-24T07:18:51;17.27;;;16.20;;
15281;SDS011;7742;44.320;19.820;2023-04-24T07:21:18;17.47;;;16.43;;
15281;SDS011;7742;44.320;19.820;2023-04-24T07:23:47;17.73;;;16.83;;
15281;SDS011;7742;44.320;19.820;2023-04-24T07:26:13;18.10;;;17.10;;
15281;SDS011;7742;44.320;19.820;2023-04-24T07:28:41;17.40;;;16.40;;
15281;SDS011;7742;44.320;19.820;2023-04-24T07:31:08;19.63;;;18.53;;
15281;SDS011;7742;44.320;19.820;2023-04-24T07:33:35;17.47;;;16.47;;
15281;SDS011;7742;44.320;19.820;2023-04-24T07:36:02;18.13;;;17.10;;
15281;SDS011;7742;44.320;19.820;2023-04-24T07:38:29;18.30;;;17.40;;
15281;SDS011;7742;44.320;19.820;2023-04-24T07:40:57;19.63;;;18.50;;
15281;SDS011;7742;44.320;19.820;2023-04-24T07:43:24;17.80;;;16.80;;
15281;SDS011;7742;44.320;19.820;2023-04-24T07:45:51;17.40;;;16.27;;
15281;SDS011;7742;44.320;19.820;2023-04-24T07:48:18;19.37;;;18.20;;
15281;SDS011;7742;44.320;19.820;2023-04-24T07:50:47;18.53;;;17.33;;
15281;SDS011;7742;44.320;19.820;2023-04-24T07:53:14;18.87;;;17.77;;
15281;SDS011;7742;44.320;19.820;2023-04-24T07:55:41;18.27;;;17.27;;
15281;SDS011;7742;44.320;19.820;2023-04-24T07:58:09;19.13;;;17.97;;
15281;SDS011;7742;44.320;19.820;2023-04-24T08:00:36;17.93;;;16.93;;
15281;SDS011;7742;44.320;19.820;2023-04-24T08:03:03;14.43;;;13.60;;
15281;SDS011;7742;44.320;19.820;2023-04-24T08:05:30;14.80;;;14.00;;
15281;SDS011;7742;44.320;19.820;2023-04-24T08:07:57;14.67;;;13.97;;
15281;SDS011;7742;44.320;19.820;2023-04-24T08:10:24;14.90;;;14.00;;
15281;SDS011;7742;44.320;19.820;2023-04-24T08:12:51;15.67;;;14.73;;
15281;SDS011;7742;44.320;19.820;2023-04-24T08:15:19;15.10;;;14.17;;
15281;SDS011;7742;44.320;19.820;2023-04-24T08:17:47;14.70;;;13.90;;
15281;SDS011;7742;44.320;19.820;2023-04-24T08:20:15;13.57;;;12.87;;
15281;SDS011;7742;44.320;19.820;2023-04-24T08:22:42;14.30;;;13.60;;
15281;SDS011;7742;44.320;19.820;2023-04-24T08:25:09;14.53;;;13.73;;
15281;SDS011;7742;44.320;19.820;2023-04-24T08:27:38;13.10;;;12.47;;
15281;SDS011;7742;44.320;19.820;2023-04-24T08:30:05;13.93;;;13.23;;
15281;SDS011;7742;44.320;19.820;2023-04-24T08:32:34;14.37;;;13.57;;
15281;SDS011;7742;44.320;19.820;2023-04-24T08:35:01;15.60;;;14.70;;
15281;SDS011;7742;44.320;19.820;2023-04-24T08:37:29;15.50;;;14.70;;
15281;SDS011;7742;44.320;19.820;2023-04-24T08:39:56;15.60;;;14.80;;
15281;SDS011;7742;44.320;19.820;2023-04-24T08:42:23;16.10;;;15.27;;
15281;SDS011;7742;44.320;19.820;2023-04-24T08:44:50;16.17;;;15.37;;
15281;SDS011;7742;44.320;19.820;2023-04-24T08:47:17;15.37;;;14.57;;
15281;SDS011;7742;44.320;19.820;2023-04-24T08:49:46;14.90;;;14.00;;
15281;SDS011;7742;44.320;19.820;2023-04-24T08:52:14;14.60;;;13.80;;
15281;SDS011;7742;44.320;19.820;2023-04-24T08:54:42;15.40;;;14.47;;
15281;SDS011;7742;44.320;19.820;2023-04-24T08:57:11;15.37;;;14.30;;
15281;SDS011;7742;44.320;19.820;2023-04-24T08:59:38;17.87;;;16.67;;
15281;SDS011;7742;44.320;19.820;2023-04-24T09:02:05;15.93;;;15.03;;
15281;SDS011;7742;44.320;19.820;2023-04-24T09:04:33;18.33;;;17.20;;
15281;SDS011;7742;44.320;19.820;2023-04-24T09:07:01;16.60;;;15.47;;
15281;SDS011;7742;44.320;19.820;2023-04-24T09:09:30;17.40;;;16.40;;
15281;SDS011;7742;44.320;19.820;2023-04-24T09:11:57;15.90;;;15.10;;
15281;SDS011;7742;44.320;19.820;2023-04-24T09:14:24;15.77;;;14.87;;
15281;SDS011;7742;44.320;19.820;2023-04-24T09:16:53;16.57;;;15.67;;
15281;SDS011;7742;44.320;19.820;2023-04-24T09:19:20;15.87;;;15.03;;
15281;SDS011;7742;44.320;19.820;2023-04-24T09:21:48;16.93;;;15.80;;
15281;SDS011;7742;44.320;19.820;2023-04-24T09:24:17;16.60;;;15.70;;
15281;SDS011;7742;44.320;19.820;2023-04-24T09:26:46;16.60;;;15.60;;
15281;SDS011;7742;44.320;19.820;2023-04-24T09:29:16;16.43;;;15.43;;
15281;SDS011;7742;44.320;19.820;2023-04-24T09:31:44;16.53;;;15.63;;
15281;SDS011;7742;44.320;19.820;2023-04-24T09:34:11;15.90;;;15.10;;
15281;SDS011;7742;44.320;19.820;2023-04-24T09:36:40;15.00;;;14.20;;
15281;SDS011;7742;44.320;19.820;2023-04-24T09:39:07;14.40;;;13.57;;
15281;SDS011;7742;44.320;19.820;2023-04-24T09:41:38;17.20;;;16.20;;
15281;SDS011;7742;44.320;19.820;2023-04-24T09:44:13;21.73;;;20.13;;
15281;SDS011;7742;44.320;19.820;2023-04-24T09:46:40;18.47;;;17.17;;
15281;SDS011;7742;44.320;19.820;2023-04-24T09:49:08;18.87;;;17.57;;
15281;SDS011;7742;44.320;19.820;2023-04-24T09:51:36;15.80;;;14.80;;
15281;SDS011;7742;44.320;19.820;2023-04-24T09:54:04;17.03;;;15.73;;
15281;SDS011;7742;44.320;19.820;2023-04-24T09:56:39;16.70;;;15.80;;
15281;SDS011;7742;44.320;19.820;2023-04-24T09:59:08;18.03;;;16.93;;
15281;SDS011;7742;44.320;19.820;2023-04-24T10:01:35;19.83;;;18.53;;
15281;SDS011;7742;44.320;19.820;2023-04-24T10:04:03;18.57;;;17.37;;
15281;SDS011;7742;44.320;19.820;2023-04-24T10:06:32;17.30;;;16.30;;
15281;SDS011;7742;44.320;19.820;2023-04-24T10:08:59;17.27;;;16.27;;
15281;SDS011;7742;44.320;19.820;2023-04-24T10:11:27;18.23;;;16.93;;
15281;SDS011;7742;44.320;19.820;2023-04-24T10:13:56;17.23;;;16.33;;
15281;SDS011;7742;44.320;19.820;2023-04-24T10:16:23;18.60;;;17.43;;
15281;SDS011;7742;44.320;19.820;2023-04-24T10:18:52;18.57;;;17.23;;
15281;SDS011;7742;44.320;19.820;2023-04-24T10:21:19;17.77;;;16.67;;
15281;SDS011;7742;44.320;19.820;2023-04-24T10:23:47;17.40;;;16.50;;
15281;SDS011;7742;44.320;19.820;2023-04-24T10:26:15;15.87;;;14.97;;
15281;SDS011;7742;44.320;19.820;2023-04-24T10:28:45;16.23;;;15.13;;
15281;SDS011;7742;44.320;19.820;2023-04-24T10:31:14;16.73;;;15.77;;
15281;SDS011;7742;44.320;19.820;2023-04-24T10:33:41;18.00;;;17.00;;
15281;SDS011;7742;44.320;19.820;2023-04-24T10:36:09;17.50;;;16.30;;
15281;SDS011;7742;44.320;19.820;2023-04-24T10:38:36;18.27;;;17.07;;
15281;SDS011;7742;44.320;19.820;2023-04-24T10:41:07;19.10;;;17.73;;
15281;SDS011;7742;44.320;19.820;2023-04-24T10:43:34;18.30;;;17.17;;
15281;SDS011;7742;44.320;19.820;2023-04-24T10:46:01;17.83;;;16.30;;
15281;SDS011;7742;44.320;19.820;2023-04-24T10:48:31;17.10;;;16.00;;
15281;SDS011;7742;44.320;19.820;2023-04-24T10:50:58;16.47;;;15.57;;
15281;SDS011;7742;44.320;19.820;2023-04-24T10:53:27;16.23;;;15.13;;
15281;SDS011;7742;44.320;19.820;2023-04-24T10:55:57;17.87;;;16.77;;
15281;SDS011;7742;44.320;19.820;2023-04-24T10:58:24;18.10;;;17.00;;
15281;SDS011;7742;44.320;19.820;2023-04-24T11:01:02;18.17;;;17.17;;
15281;SDS011;7742;44.320;19.820;2023-04-24T11:03:31;17.43;;;16.23;;
15281;SDS011;7742;44.320;19.820;2023-04-24T11:05:59;19.80;;;18.40;;
15281;SDS011;7742;44.320;19.820;2023-04-24T11:08:27;20.37;;;19.10;;
15281;SDS011;7742;44.320;19.820;2023-04-24T11:10:55;20.77;;;19.37;;
15281;SDS011;7742;44.320;19.820;2023-04-24T11:13:23;22.73;;;21.33;;
15281;SDS011;7742;44.320;19.820;2023-04-24T11:18:38;19.67;;;18.50;;
15281;SDS011;7742;44.320;19.820;2023-04-24T11:21:09;21.50;;;20.20;;
15281;SDS011;7742;44.320;19.820;2023-04-24T11:23:36;21.23;;;19.93;;
15281;SDS011;7742;44.320;19.820;2023-04-24T11:26:10;21.73;;;20.43;;
15281;SDS011;7742;44.320;19.820;2023-04-24T11:28:37;23.90;;;22.30;;
15281;SDS011;7742;44.320;19.820;2023-04-24T11:33:47;25.20;;;23.50;;
15281;SDS011;7742;44.320;19.820;2023-04-24T11:36:14;26.23;;;24.33;;
15281;SDS011;7742;44.320;19.820;2023-04-24T11:38:41;26.97;;;25.03;;
15281;SDS011;7742;44.320;19.820;2023-04-24T11:41:08;26.03;;;24.13;;
15281;SDS011;7742;44.320;19.820;2023-04-24T11:43:36;24.40;;;22.70;;
15281;SDS011;7742;44.320;19.820;2023-04-24T11:46:03;25.03;;;23.33;;
15281;SDS011;7742;44.320;19.820;2023-04-24T11:48:33;25.10;;;23.30;;
15281;SDS011;7742;44.320;19.820;2023-04-24T11:51:03;24.93;;;23.13;;
15281;SDS011;7742;44.320;19.820;2023-04-24T11:53:30;24.60;;;22.90;;
15281;SDS011;7742;44.320;19.820;2023-04-24T11:55:57;25.70;;;23.50;;
15281;SDS011;7742;44.320;19.820;2023-04-24T11:58:34;24.67;;;22.77;;
15281;SDS011;7742;44.320;19.820;2023-04-24T12:01:01;24.03;;;22.33;;
15281;SDS011;7742;44.320;19.820;2023-04-24T12:03:28;22.80;;;20.87;;
15281;SDS011;7742;44.320;19.820;2023-04-24T12:06:05;22.30;;;20.80;;
15281;SDS011;7742;44.320;19.820;2023-04-24T12:08:33;21.57;;;19.87;;
15281;SDS011;7742;44.320;19.820;2023-04-24T12:11:00;21.23;;;19.90;;
15281;SDS011;7742;44.320;19.820;2023-04-24T12:13:27;24.43;;;23.03;;
15281;SDS011;7742;44.320;19.820;2023-04-24T12:15:54;21.67;;;20.27;;
15281;SDS011;7742;44.320;19.820;2023-04-24T12:18:22;21.33;;;19.80;;
15281;SDS011;7742;44.320;19.820;2023-04-24T12:20:49;20.17;;;18.77;;
15281;SDS011;7742;44.320;19.820;2023-04-24T12:23:28;22.63;;;20.90;;
15281;SDS011;7742;44.320;19.820;2023-04-24T12:25:59;23.27;;;21.67;;
15281;SDS011;7742;44.320;19.820;2023-04-24T12:28:33;20.87;;;19.40;;
15281;SDS011;7742;44.320;19.820;2023-04-24T12:31:01;22.93;;;21.13;;
15281;SDS011;7742;44.320;19.820;2023-04-24T12:33:28;21.70;;;20.20;;
15281;SDS011;7742;44.320;19.820;2023-04-24T12:35:58;21.20;;;19.60;;
15281;SDS011;7742;44.320;19.820;2023-04-24T12:38:27;21.30;;;19.90;;
15281;SDS011;7742;44.320;19.820;2023-04-24T12:41:01;19.97;;;18.67;;
15281;SDS011;7742;44.320;19.820;2023-04-24T12:43:29;21.77;;;20.40;;
15281;SDS011;7742;44.320;19.820;2023-04-24T12:45:56;22.00;;;20.30;;
15281;SDS011;7742;44.320;19.820;2023-04-24T12:48:24;23.30;;;21.73;;
15281;SDS011;7742;44.320;19.820;2023-04-24T12:50:52;24.27;;;22.67;;
15281;SDS011;7742;44.320;19.820;2023-04-24T12:53:20;24.67;;;23.07;;
15281;SDS011;7742;44.320;19.820;2023-04-24T12:55:53;22.30;;;20.90;;
15281;SDS011;7742;44.320;19.820;2023-04-24T12:58:20;22.37;;;20.87;;
15281;SDS011;7742;44.320;19.820;2023-04-24T13:00:47;21.37;;;19.83;;
15281;SDS011;7742;44.320;19.820;2023-04-24T13:03:14;20.37;;;18.93;;
15281;SDS011;7742;44.320;19.820;2023-04-24T13:05:41;20.33;;;19.03;;
15281;SDS011;7742;44.320;19.820;2023-04-24T13:08:08;21.23;;;19.93;;
15281;SDS011;7742;44.320;19.820;2023-04-24T13:10:35;22.70;;;21.03;;
15281;SDS011;7742;44.320;19.820;2023-04-24T13:13:04;22.27;;;20.67;;
15281;SDS011;7742;44.320;19.820;2023-04-24T13:15:31;20.33;;;19.03;;
15281;SDS011;7742;44.320;19.820;2023-04-24T13:17:58;20.47;;;18.97;;
15281;SDS011;7742;44.320;19.820;2023-04-24T13:20:24;21.13;;;19.73;;
15281;SDS011;7742;44.320;19.820;2023-04-24T13:22:51;19.60;;;18.30;;
15281;SDS011;7742;44.320;19.820;2023-04-24T13:25:19;19.70;;;18.40;;
15281;SDS011;7742;44.320;19.820;2023-04-24T13:27:47;22.33;;;20.83;;
15281;SDS011;7742;44.320;19.820;2023-04-24T13:30:16;18.90;;;17.70;;
15281;SDS011;7742;44.320;19.820;2023-04-24T13:32:43;20.47;;;19.07;;
15281;SDS011;7742;44.320;19.820;2023-04-24T13:35:10;20.27;;;18.70;;
15281;SDS011;7742;44.320;19.820;2023-04-24T13:37:36;20.17;;;18.87;;
15281;SDS011;7742;44.320;19.820;2023-04-24T13:40:04;18.40;;;17.20;;
15281;SDS011;7742;44.320;19.820;2023-04-24T13:42:32;19.17;;;17.97;;
15281;SDS011;7742;44.320;19.820;2023-04-24T13:44:59;21.17;;;19.77;;
15281;SDS011;7742;44.320;19.820;2023-04-24T13:47:27;21.43;;;20.00;;
15281;SDS011;7742;44.320;19.820;2023-04-24T13:49:54;22.73;;;21.13;;
15281;SDS011;7742;44.320;19.820;2023-04-24T13:52:21;22.33;;;20.87;;
15281;SDS011;7742;44.320;19.820;2023-04-24T13:54:48;19.83;;;18.67;;
15281;SDS011;7742;44.320;19.820;2023-04-24T13:57:15;23.97;;;22.53;;
15281;SDS011;7742;44.320;19.820;2023-04-24T13:59:43;23.47;;;22.07;;
15281;SDS011;7742;44.320;19.820;2023-04-24T14:02:10;22.53;;;21.03;;
15281;SDS011;7742;44.320;19.820;2023-04-24T14:04:38;20.83;;;19.73;;
15281;SDS011;7742;44.320;19.820;2023-04-24T14:07:05;19.73;;;18.63;;
15281;SDS011;7742;44.320;19.820;2023-04-24T14:09:33;18.53;;;17.53;;
15281;SDS011;7742;44.320;19.820;2023-04-24T14:12:00;21.77;;;20.43;;
15281;SDS011;7742;44.320;19.820;2023-04-24T14:14:28;18.80;;;17.53;;
15281;SDS011;7742;44.320;19.820;2023-04-24T14:16:56;19.40;;;18.20;;
15281;SDS011;7742;44.320;19.820;2023-04-24T14:19:23;19.07;;;17.87;;
15281;SDS011;7742;44.320;19.820;2023-04-24T14:21:52;15.83;;;15.03;;
15281;SDS011;7742;44.320;19.820;2023-04-24T14:24:20;16.40;;;15.50;;
15281;SDS011;7742;44.320;19.820;2023-04-24T14:26:47;19.77;;;18.77;;
15281;SDS011;7742;44.320;19.820;2023-04-24T14:29:14;18.77;;;17.87;;